Portada
METAR-TAF:

METAR-TAF

Aeroports :

Nouméa La Tontouta, Nova Caledònia

latitud: 22-01S, longitud: 166-13E, altitud: 16 m

Observació

L'informe es va fer fa 7 minuts, a les 06:30 UTC
Vent 12 kt del Sud/Sud-Est
Temperatura 21°C
Humitat 56%
Pressió 1017 hPa
Visibilitat 10 km o més
Cel cobert a una alçada de 5600 ft

METAR: NWWW 250630Z AUTO 15012KT 9999 OVC056 21/12 Q1017 NOSIG

Hora: 17:37 (06:37 UTC)

Pronòstic

L'informe es va fer fa 1 hora i 37 minuts, a les 05:00 UTC
Pronòstic vàlid del 25 a les 06 UTC al 26 a les 06 UTC
Vent 12 kt del Sud/Sud-Est
Visibilitat 10 km o més
Núvols disperses a una alçada de 5000 ft
Evolucionant progressivament
l' 25 a les 06 UTC al 25 a les 09 UTC
Vent 5 kt del Est
Evolucionant progressivament
l' 25 a les 22 UTC al 25 a les 24 UTC
Vent 12 kt del Sud/Sud-Est

TAF: NWWW 250500Z 2506/2606 16012KT 9999 SCT050 BECMG 2506/2509 10005KT BECMG 2522/2524 16012KT

Observacions i pronòstics meteorològics de més de 4000 aeroports (METAR i TAF).

Les estacions disponibles són els punts grocs i vermells al mapa.

Posi el ratolí al punt desitjat per veure el nom de l'estació.

Feu clic per veure les observacions i els pronòstics meteorològics.

Per canviar el mapa: feu clic els botons verds amb una creu de color negre per apropar; al botó verd amb un guió per allunyar la imatge; o en les fletxes verdes per a mapes adjacents.


METAR-TAF: